Flight Track Log - Related Links

Times and Time Zones

All times are in EDT time to prevent confusion due to time zone crossing. See the KFS724 flight status page for this flight to view local times or setup timezone preferences in your user account.

Time Position Orientation Groundspeed Altitude Reporting Facility
EDT Latitude Longitude Course Direction KTS MPH feet Rate Location/Type
Fri 12:30:55 PM 42.2772 -82.9631 211° Southwest 107 123 1,300  Level Cleveland Center
Fri 12:31:13 PM 42.2708 -82.9683 211° Southwest 113 130 2,100 2,810 Climbing Cleveland Center
Fri 12:32:14 PM 42.2178 -83.0083 209° Southwest 223 257 5,000 1,426 Climbing Cleveland Center
Fri 12:33:15 PM 42.1814 -83.0603 227° Southwest 225 259 5,000  Level Cleveland Center
Fri 12:34:08 PM 42.1936 -83.1258 284° West 217 250 5,000  Level FAA TRACON SMA TRACON (SMA)
Fri 12:34:28 PM 42.1981 -83.1506 284° West 219 252 5,000  Level FAA TRACON SMA TRACON (SMA)
Fri 12:34:47 PM 42.2031 -83.1817 282° West 220 253 5,000  Level FAA TRACON SMA TRACON (SMA)
Fri 12:35:07 PM 42.2081 -83.2067 285° West 230 265 5,000  Level FAA TRACON SMA TRACON (SMA)
Fri 12:35:47 PM 42.2322 -83.2561 303° West 233 268 5,000  Level FAA TRACON SMA TRACON (SMA)
Fri 12:36:07 PM 42.2431 -83.2781 304° West 234 269 5,000  Level FAA TRACON SMA TRACON (SMA)
Fri 12:36:27 PM 42.2567 -83.3061 303° West 239 275 5,000 -150 Level FAA TRACON SMA TRACON (SMA)
Fri 12:36:47 PM 42.2672 -83.3297 301° West 230 265 4,900 -600 Descending FAA TRACON SMA TRACON (SMA)
Fri 12:37:07 PM 42.2772 -83.3544 299° West 219 252 4,600 -1,200 Descending FAA TRACON SMA TRACON (SMA)
Fri 12:37:27 PM 42.2850 -83.3717 301° West 219 252 4,100 -1,800 Descending FAA TRACON SMA TRACON (SMA)
Fri 12:37:47 PM 42.2964 -83.4003 298° West 199 229 3,400 -1,610 Descending FAA TRACON SMA TRACON (SMA)
Fri 12:38:08 PM 42.3028 -83.4203 293° West 173 199 3,000 -878 Descending FAA TRACON SMA TRACON (SMA)
Fri 12:38:28 PM 42.2986 -83.4425 256° West 148 170 2,800 -600 Descending FAA TRACON SMA TRACON (SMA)
Fri 12:38:48 PM 42.2908 -83.4536 227° Southwest 123 142 2,600 -1,050 Descending FAA TRACON SMA TRACON (SMA)
Fri 12:39:08 PM 42.2839 -83.4633 226° Southwest 116 133 2,100 -1,500 Descending FAA TRACON SMA TRACON (SMA)
Fri 12:39:28 PM 42.2758 -83.4747 226° Southwest 112 129 1,600 -1,077 Descending FAA TRACON SMA TRACON (SMA)
Fri 12:39:47 PM 42.2692 -83.4844 227° Southwest 113 130 1,400 -462 Descending FAA TRACON SMA TRACON (SMA)
Fri 12:40:07 PM 42.2633 -83.4925 226° Southwest 112 129 1,300 -600 Descending FAA TRACON SMA TRACON (SMA)
Fri 12:40:27 PM 42.2556 -83.5039 227° Southwest 118 136 1,000 -600 Descending FAA TRACON SMA TRACON (SMA)
Fri 12:40:47 PM 42.2508 -83.5108 227° Southwest 121 139 900 -150 Descending FAA TRACON SMA TRACON (SMA)
Fri 12:41:07 PM 42.2508 -83.5108 323° Northwest 121 139 900  Level FAA TRACON SMA TRACON (SMA)

Login

Don't have an account? Register now (free) for customized features, flight alerts, and more!